Oslo, Norway
Current Conditions -  °F | °C
As of 8:20 PM on Thursday 27 Nov 2014 (Local Time) from ENGM Reporting Station
Light Snow Light Snow  
Wind Chill: 28°   Ceiling: 2500
Heat Index: 28°   Visibility: 6mi
Dew Point: 27°   Wind: 0mph
Humidity: 93%   Direction: NA
Pressure: 30.24"   Gusts: NA
Location:  60.2°N, 11.08°E
Report Text: ENGM 271920Z 00000KT 9999 -SN FEW005 BKN025 M02/M03 Q1024 TEMPO BKN008
Loading
Personal Weather Stations






























Interactive Weather Map New forecast layout! Learn more

10-Day Weather Forecast

Advertisements
Track Severe Weather on mobile